Time;durP1;ratioP1;P1;durP2;ratioP2;P2;SDS_P1;SDS_P2;PMS_P1;PMS_P2;Temp;Humidity;BMP_temperature;BMP_pressure;BME280_temperature;BME280_humidity;BME280_pressure;Samples;Min_cycle;Max_cycle;Signal;HPM_P1;HPM_P2
2024/01/14 00:00:18;;;;;;;14.97;5.17;;;;;;;0.15;100.00;100606.25;4967469;28;20225;-70
2024/01/14 00:02:44;;;;;;;12.80;5.60;;;;;;;0.14;100.00;100605.34;4969263;28;20255;-72
2024/01/14 00:05:11;;;;;;;13.33;5.57;;;;;;;0.16;100.00;100608.94;4970082;28;20231;-71
2024/01/14 00:07:38;;;;;;;16.10;5.30;;;;;;;0.10;100.00;100595.56;4966753;28;20211;-70
2024/01/14 00:10:05;;;;;;;15.30;5.60;;;;;;;0.15;100.00;100601.94;4963441;28;20252;-71
2024/01/14 00:12:31;;;;;;;14.37;5.67;;;;;;;0.15;100.00;100603.63;4968191;28;20270;-71
2024/01/14 00:14:58;;;;;;;11.40;4.77;;;;;;;0.14;100.00;100602.75;4966403;28;20205;-70
2024/01/14 00:17:25;;;;;;;12.90;5.37;;;;;;;0.16;100.00;100602.81;4969752;28;20208;-72
2024/01/14 00:19:53;;;;;;;12.60;5.33;;;;;;;0.10;100.00;100607.69;4969149;28;20204;-71
2024/01/14 00:22:19;;;;;;;12.03;4.90;;;;;;;0.04;100.00;100594.31;4970021;28;20200;-72
2024/01/14 00:24:46;;;;;;;11.63;4.30;;;;;;;0.06;100.00;100598.81;4966700;28;20945;-71
2024/01/14 00:27:13;;;;;;;13.23;4.37;;;;;;;0.14;100.00;100596.63;4965728;28;20216;-71
2024/01/14 00:29:39;;;;;;;14.53;5.30;;;;;;;0.09;100.00;100585.97;4968893;28;20492;-70
2024/01/14 00:32:06;;;;;;;10.20;4.77;;;;;;;-0.07;100.00;100558.13;4967365;28;20279;-72
2024/01/14 00:34:33;;;;;;;10.40;4.73;;;;;;;0.06;100.00;100585.78;4964518;28;20295;-71
2024/01/14 00:37:00;;;;;;;12.47;5.87;;;;;;;0.07;100.00;100581.47;4966399;28;20209;-70
2024/01/14 00:39:26;;;;;;;10.93;3.80;;;;;;;-0.04;100.00;100567.81;4968617;28;20203;-70
2024/01/14 00:41:53;;;;;;;11.23;4.27;;;;;;;-0.02;100.00;100571.41;4969767;28;20219;-70
2024/01/14 00:44:19;;;;;;;10.33;4.33;;;;;;;-0.05;100.00;100574.72;4968515;28;20635;-72
2024/01/14 00:46:48;;;;;;;14.93;5.27;;;;;;;-0.10;100.00;100576.16;4965544;28;20701;-72
2024/01/14 00:49:17;;;;;;;10.77;4.80;;;;;;;-0.09;100.00;100572.75;4970495;28;20587;-72
2024/01/14 00:51:43;;;;;;;13.63;4.80;;;;;;;-0.03;100.00;100573.09;4961219;28;20319;-71
2024/01/14 00:54:10;;;;;;;8.60;3.63;;;;;;;-0.06;100.00;100562.50;4960240;28;20279;-71
2024/01/14 00:56:36;;;;;;;8.70;3.87;;;;;;;0.01;100.00;100561.19;4963910;28;20204;-70
2024/01/14 00:59:03;;;;;;;7.03;3.87;;;;;;;-0.08;100.00;100566.75;4963530;28;20949;-71
2024/01/14 01:01:30;;;;;;;10.40;4.30;;;;;;;-0.05;100.00;100560.81;4966755;28;20221;-70
2024/01/14 01:03:56;;;;;;;14.80;5.47;;;;;;;-0.09;100.00;100558.84;4964490;28;20216;-72
2024/01/14 01:06:23;;;;;;;12.33;3.50;;;;;;;-0.13;100.00;100560.38;4970284;28;20282;-71
2024/01/14 01:08:49;;;;;;;9.37;2.87;;;;;;;-0.14;100.00;100560.28;4962602;28;20622;-72
2024/01/14 01:11:16;;;;;;;11.47;3.00;;;;;;;-0.19;100.00;100551.31;4969035;28;20296;-72
2024/01/14 01:13:43;;;;;;;9.97;4.20;;;;;;;-0.19;100.00;100556.53;4960450;28;20631;-71
2024/01/14 01:16:09;;;;;;;10.47;3.70;;;;;;;-0.18;100.00;100558.31;4968058;28;20671;-72
2024/01/14 01:18:36;;;;;;;7.03;3.27;;;;;;;-0.16;100.00;100552.38;4968852;28;20339;-72
2024/01/14 01:21:02;;;;;;;9.63;3.90;;;;;;;-0.16;100.00;100546.28;4959326;28;20278;-72
2024/01/14 01:23:29;;;;;;;12.67;4.17;;;;;;;-0.17;100.00;100542.78;4962828;28;20239;-72
2024/01/14 01:25:55;;;;;;;14.30;4.80;;;;;;;-0.14;100.00;100549.88;4963007;28;20211;-71
2024/01/14 01:28:22;;;;;;;13.57;4.07;;;;;;;-0.15;100.00;100543.78;4964632;28;20204;-72
2024/01/14 01:30:48;;;;;;;9.10;4.03;;;;;;;-0.09;100.00;100541.50;4965003;28;20274;-72
2024/01/14 01:33:15;;;;;;;10.90;4.50;;;;;;;-0.11;100.00;100543.13;4968325;28;20243;-68
2024/01/14 01:35:42;;;;;;;12.67;4.00;;;;;;;-0.02;100.00;100542.75;4966950;28;20275;-67
2024/01/14 01:38:08;;;;;;;15.33;5.27;;;;;;;-0.05;100.00;100535.69;4968888;28;20210;-69
2024/01/14 01:40:34;;;;;;;11.77;4.73;;;;;;;-0.07;100.00;100531.19;4965763;28;20222;-69
2024/01/14 01:43:01;;;;;;;10.13;4.37;;;;;;;-0.09;100.00;100528.50;4966910;28;20637;-71
2024/01/14 01:45:27;;;;;;;8.87;4.33;;;;;;;-0.09;100.00;100530.22;4969002;28;20630;-71
2024/01/14 01:47:54;;;;;;;11.77;4.30;;;;;;;-0.09;100.00;100525.00;4956445;28;20312;-73
2024/01/14 01:50:21;;;;;;;12.57;4.07;;;;;;;-0.13;100.00;100529.13;4967606;28;20221;-71
2024/01/14 01:52:48;;;;;;;7.40;3.37;;;;;;;-0.19;100.00;100517.47;4968530;28;20242;-71
2024/01/14 01:55:14;;;;;;;9.80;4.07;;;;;;;-0.22;100.00;100517.31;4967554;28;20202;-71
2024/01/14 01:57:41;;;;;;;9.57;4.40;;;;;;;-0.26;100.00;100516.22;4963484;28;20227;-71
2024/01/14 02:00:09;;;;;;;11.63;4.30;;;;;;;-0.23;100.00;100503.41;4965520;28;20223;-71
2024/01/14 02:02:40;;;;;;;13.07;5.20;;;;;;;-0.19;100.00;100510.56;4967453;28;20200;-72
2024/01/14 02:05:07;;;;;;;12.30;4.47;;;;;;;-0.15;100.00;100520.34;4963967;28;20213;-72
2024/01/14 02:07:33;;;;;;;10.30;3.73;;;;;;;-0.16;100.00;100508.16;4967976;28;20289;-70
2024/01/14 02:10:00;;;;;;;13.67;3.93;;;;;;;-0.18;100.00;100501.94;4960455;28;20208;-71
2024/01/14 02:12:26;;;;;;;9.93;4.47;;;;;;;-0.16;100.00;100495.13;4969709;28;20246;-72
2024/01/14 02:14:53;;;;;;;9.93;4.03;;;;;;;-0.27;100.00;100483.22;4967015;28;20693;-72
2024/01/14 02:17:19;;;;;;;11.40;3.83;;;;;;;-0.28;100.00;100476.22;4961236;28;20209;-71
2024/01/14 02:19:46;;;;;;;13.50;4.10;;;;;;;-0.31;100.00;100483.84;4966032;28;20763;-72
2024/01/14 02:22:22;;;;;;;12.43;4.40;;;;;;;-0.30;100.00;100496.06;4969421;28;20195;-70
2024/01/14 02:24:50;;;;;;;12.13;3.47;;;;;;;-0.36;100.00;100485.28;4967564;28;20336;-72
2024/01/14 02:27:16;;;;;;;10.33;3.50;;;;;;;-0.37;100.00;100486.09;4956953;28;20664;-70
2024/01/14 02:29:44;;;;;;;8.47;3.60;;;;;;;-0.36;100.00;100477.50;4964331;28;20746;-70
2024/01/14 02:32:10;;;;;;;12.60;4.43;;;;;;;-0.37;100.00;100487.00;4968536;28;20244;-71
2024/01/14 02:34:37;;;;;;;12.33;4.50;;;;;;;-0.27;100.00;100478.00;4972217;28;20287;-72
2024/01/14 02:37:03;;;;;;;12.87;3.70;;;;;;;-0.29;100.00;100470.94;4966689;28;20223;-71
2024/01/14 02:39:30;;;;;;;8.97;3.83;;;;;;;-0.31;100.00;100473.44;4972335;28;20202;-71
2024/01/14 02:41:56;;;;;;;14.47;3.40;;;;;;;-0.37;100.00;100481.78;4971043;28;20790;-71
2024/01/14 02:44:23;;;;;;;10.67;4.30;;;;;;;-0.34;100.00;100486.28;4969780;28;20253;-71
2024/01/14 02:46:49;;;;;;;11.80;3.80;;;;;;;-0.35;100.00;100477.56;4962703;28;20199;-71
2024/01/14 02:49:16;;;;;;;9.43;4.40;;;;;;;-0.34;100.00;100479.38;4968520;28;20685;-72
2024/01/14 02:51:45;;;;;;;15.23;4.57;;;;;;;-0.19;100.00;100483.66;4967501;28;20726;-70
2024/01/14 02:54:12;;;;;;;10.00;4.07;;;;;;;-0.20;100.00;100479.25;4961678;28;20204;-71
2024/01/14 02:56:38;;;;;;;11.30;3.70;;;;;;;-0.27;100.00;100470.22;4966454;28;20257;-71
2024/01/14 02:59:04;;;;;;;10.93;4.23;;;;;;;-0.21;100.00;100465.34;4971805;28;20317;-72
2024/01/14 03:01:31;;;;;;;8.80;3.87;;;;;;;-0.16;100.00;100466.50;4970286;28;20262;-71
2024/01/14 03:03:57;;;;;;;7.53;3.63;;;;;;;-0.19;100.00;100463.72;4967727;28;20284;-70
2024/01/14 03:06:24;;;;;;;9.90;3.87;;;;;;;-0.14;100.00;100475.28;4968221;28;20207;-69
2024/01/14 03:08:51;;;;;;;9.77;4.13;;;;;;;-0.15;100.00;100462.19;4966711;28;20205;-69
2024/01/14 03:11:17;;;;;;;8.93;3.43;;;;;;;-0.16;100.00;100457.78;4969708;28;20262;-70
2024/01/14 03:13:44;;;;;;;10.00;3.57;;;;;;;-0.10;100.00;100466.84;4967517;28;20227;-69
2024/01/14 03:16:10;;;;;;;11.93;4.40;;;;;;;-0.15;100.00;100463.09;4970811;28;20204;-69
2024/01/14 03:18:36;;;;;;;8.93;3.60;;;;;;;-0.18;100.00;100459.41;4967463;28;20230;-69
2024/01/14 03:21:03;;;;;;;8.70;4.57;;;;;;;-0.16;100.00;100457.78;4970152;28;20223;-69
2024/01/14 03:23:30;;;;;;;8.73;3.23;;;;;;;-0.18;100.00;100442.09;4971601;28;20259;-69
2024/01/14 03:25:56;;;;;;;11.23;4.30;;;;;;;-0.20;100.00;100441.13;4969658;28;20222;-72
2024/01/14 03:28:23;;;;;;;12.50;4.00;;;;;;;-0.12;100.00;100449.34;4968137;28;20562;-71
2024/01/14 03:30:49;;;;;;;11.63;4.27;;;;;;;-0.13;100.00;100450.16;4970510;28;20220;-71
2024/01/14 03:33:16;;;;;;;8.50;3.60;;;;;;;-0.05;100.00;100448.88;4969712;28;20226;-71
2024/01/14 03:35:42;;;;;;;11.87;3.80;;;;;;;-0.14;100.00;100433.66;4971088;28;20254;-69
2024/01/14 03:38:09;;;;;;;10.07;3.90;;;;;;;-0.21;100.00;100426.31;4969855;28;20301;-70
2024/01/14 03:40:35;;;;;;;8.63;3.90;;;;;;;-0.23;100.00;100421.84;4967685;28;20228;-70
2024/01/14 03:43:01;;;;;;;13.70;4.23;;;;;;;-0.27;100.00;100418.16;4962521;28;20214;-69
2024/01/14 03:45:28;;;;;;;11.43;4.50;;;;;;;-0.24;100.00;100420.03;4958362;28;20667;-72
2024/01/14 03:47:54;;;;;;;8.20;3.73;;;;;;;-0.18;100.00;100428.19;4969960;28;20200;-72
2024/01/14 03:50:21;;;;;;;8.13;4.17;;;;;;;-0.13;100.00;100434.53;4970640;28;20318;-71
2024/01/14 03:52:47;;;;;;;13.30;4.27;;;;;;;-0.11;100.00;100435.53;4969529;28;20235;-71
2024/01/14 03:55:14;;;;;;;12.03;4.13;;;;;;;-0.23;100.00;100416.63;4970236;28;20218;-69
2024/01/14 03:57:40;;;;;;;11.30;3.97;;;;;;;-0.26;100.00;100419.97;4969621;28;20302;-70
2024/01/14 04:00:08;;;;;;;10.77;4.37;;;;;;;-0.32;100.00;100410.09;4966617;28;20746;-72
2024/01/14 04:02:35;;;;;;;8.87;3.37;;;;;;;-0.27;100.00;100407.75;4970519;28;20212;-72
2024/01/14 04:05:01;;;;;;;9.77;4.40;;;;;;;-0.28;100.00;100403.38;4968989;28;20204;-70
2024/01/14 04:07:27;;;;;;;12.20;4.60;;;;;;;-0.22;100.00;100405.41;4963768;28;20422;-71
2024/01/14 04:09:54;;;;;;;9.83;4.63;;;;;;;-0.21;100.00;100413.31;4968619;28;20218;-72
2024/01/14 04:12:20;;;;;;;9.97;4.63;;;;;;;-0.17;100.00;100415.25;4970223;28;20211;-71
2024/01/14 04:14:47;;;;;;;10.07;4.23;;;;;;;-0.27;100.00;100402.56;4968403;28;20220;-72
2024/01/14 04:17:13;;;;;;;11.77;4.97;;;;;;;-0.31;100.00;100398.00;4970391;28;20208;-71
2024/01/14 04:19:39;;;;;;;9.43;4.33;;;;;;;-0.28;100.00;100403.38;4965257;28;20213;-71
2024/01/14 04:22:06;;;;;;;11.57;4.27;;;;;;;-0.34;100.00;100390.91;4968686;28;20232;-72
2024/01/14 04:24:32;;;;;;;8.70;3.63;;;;;;;-0.38;100.00;100388.06;4969294;28;20284;-72
2024/01/14 04:26:59;;;;;;;14.93;5.00;;;;;;;-0.55;100.00;100380.97;4960865;28;20296;-71
2024/01/14 04:29:25;;;;;;;13.93;4.97;;;;;;;-0.76;100.00;100371.16;4963450;28;20207;-71
2024/01/14 04:31:52;;;;;;;10.53;4.73;;;;;;;-0.89;100.00;100371.22;4966680;28;20648;-70
2024/01/14 04:34:18;;;;;;;8.87;3.90;;;;;;;-1.05;100.00;100365.97;4969934;28;20311;-72
2024/01/14 04:36:45;;;;;;;12.43;4.07;;;;;;;-1.03;100.00;100375.63;4967779;28;20200;-72
2024/01/14 04:39:11;;;;;;;6.97;2.90;;;;;;;-1.09;100.00;100376.97;4962942;28;20206;-72
2024/01/14 04:41:38;;;;;;;8.77;4.43;;;;;;;-1.17;100.00;100373.94;4967215;28;20258;-71
2024/01/14 04:44:05;;;;;;;8.73;4.40;;;;;;;-1.11;100.00;100376.00;4968387;28;20294;-71
2024/01/14 04:46:31;;;;;;;12.37;3.80;;;;;;;-0.97;100.00;100385.50;4969247;28;20275;-72
2024/01/14 04:48:58;;;;;;;9.80;3.80;;;;;;;-1.06;100.00;100369.38;4966711;28;20597;-70
2024/01/14 04:51:25;;;;;;;8.63;2.80;;;;;;;-1.03;100.00;100373.03;4968899;28;20273;-72
2024/01/14 04:53:51;;;;;;;5.80;3.17;;;;;;;-1.06;100.00;100371.97;4967873;28;20595;-72
2024/01/14 04:56:17;;;;;;;6.40;2.77;;;;;;;-1.02;100.00;100379.13;4968463;28;20234;-72
2024/01/14 04:58:44;;;;;;;12.93;3.83;;;;;;;-1.03;100.00;100366.94;4966944;28;20223;-70
2024/01/14 05:01:11;;;;;;;9.57;3.90;;;;;;;-1.00;100.00;100374.91;4965247;28;20571;-69
2024/01/14 05:03:37;;;;;;;12.37;3.97;;;;;;;-0.99;100.00;100384.50;4968356;28;20209;-69
2024/01/14 05:06:05;;;;;;;8.47;3.60;;;;;;;-1.01;100.00;100384.41;4968781;28;20700;-72
2024/01/14 05:08:31;;;;;;;10.77;4.17;;;;;;;-0.93;100.00;100374.47;4966498;28;20671;-71
2024/01/14 05:10:58;;;;;;;8.67;3.43;;;;;;;-0.86;100.00;100383.50;4964826;28;20269;-72
2024/01/14 05:13:24;;;;;;;10.53;4.40;;;;;;;-0.80;100.00;100379.59;4970131;28;20600;-72
2024/01/14 05:15:51;;;;;;;9.80;3.67;;;;;;;-0.69;100.00;100386.28;4969251;28;20208;-71
2024/01/14 05:18:17;;;;;;;12.70;4.40;;;;;;;-0.60;100.00;100385.91;4966072;28;20302;-71
2024/01/14 05:20:44;;;;;;;7.27;3.03;;;;;;;-0.69;100.00;100369.78;4966574;28;20324;-72
2024/01/14 05:23:10;;;;;;;10.30;3.17;;;;;;;-0.68;100.00;100376.78;4967265;28;20207;-72
2024/01/14 05:25:37;;;;;;;10.20;3.40;;;;;;;-0.72;100.00;100372.22;4963575;28;20301;-71
2024/01/14 05:28:03;;;;;;;8.90;4.53;;;;;;;-0.63;100.00;100373.63;4965721;28;20622;-72
2024/01/14 05:30:30;;;;;;;7.47;3.23;;;;;;;-0.51;100.00;100378.63;4965902;28;20223;-71
2024/01/14 05:32:56;;;;;;;11.40;3.37;;;;;;;-0.57;100.00;100364.38;4964603;28;20713;-70
2024/01/14 05:35:23;;;;;;;7.70;3.50;;;;;;;-0.51;100.00;100370.84;4969536;28;20296;-68
2024/01/14 05:37:49;;;;;;;8.37;3.03;;;;;;;-0.58;100.00;100371.31;4967347;28;20579;-69
2024/01/14 05:40:16;;;;;;;13.00;3.50;;;;;;;-0.49;100.00;100374.41;4967439;28;20227;-70
2024/01/14 05:42:43;;;;;;;7.83;3.90;;;;;;;-0.46;100.00;100371.09;4965483;28;20199;-69
2024/01/14 05:45:10;;;;;;;11.97;3.90;;;;;;;-0.43;100.00;100366.06;4977435;28;20210;-70
2024/01/14 05:47:39;;;;;;;8.40;3.80;;;;;;;-0.44;100.00;100365.16;4966588;28;20203;-71
2024/01/14 05:50:07;;;;;;;10.07;4.30;;;;;;;-0.46;100.00;100343.38;4967495;28;20669;-71
2024/01/14 05:52:34;;;;;;;9.70;4.43;;;;;;;-0.57;100.00;100338.38;4967151;28;20680;-71
2024/01/14 05:55:00;;;;;;;10.00;4.50;;;;;;;-0.63;100.00;100339.84;4968303;28;20212;-71
2024/01/14 05:57:26;;;;;;;9.73;3.43;;;;;;;-0.72;100.00;100335.81;4968251;28;20642;-70
2024/01/14 05:59:53;;;;;;;8.50;3.80;;;;;;;-0.82;100.00;100333.47;4964861;28;20207;-71
2024/01/14 06:02:19;;;;;;;10.23;3.73;;;;;;;-0.87;100.00;100338.41;4967682;28;20261;-71
2024/01/14 06:04:46;;;;;;;9.67;4.47;;;;;;;-0.84;100.00;100345.50;4967391;28;20200;-70
2024/01/14 06:07:12;;;;;;;9.83;3.90;;;;;;;-0.79;100.00;100336.28;4966672;28;20210;-71
2024/01/14 06:09:39;;;;;;;12.23;4.23;;;;;;;-0.73;100.00;100342.72;4969015;28;20291;-71
2024/01/14 06:12:06;;;;;;;6.30;2.77;;;;;;;-0.68;100.00;100327.38;4976545;28;20570;-71
2024/01/14 06:14:32;;;;;;;8.53;3.70;;;;;;;-0.59;100.00;100334.81;4971049;28;20219;-71
2024/01/14 06:16:59;;;;;;;10.50;3.70;;;;;;;-0.52;100.00;100335.22;4967504;28;20209;-71
2024/01/14 06:19:25;;;;;;;9.03;4.27;;;;;;;-0.51;100.00;100338.72;4972521;28;20309;-71
2024/01/14 06:21:52;;;;;;;7.67;3.87;;;;;;;-0.46;100.00;100330.38;4968330;28;20223;-70
2024/01/14 06:24:18;;;;;;;8.23;3.37;;;;;;;-0.40;100.00;100322.94;4972694;28;20290;-71
2024/01/14 06:26:44;;;;;;;9.10;3.53;;;;;;;-0.34;100.00;100333.69;4971150;28;20551;-70
2024/01/14 06:29:11;;;;;;;8.50;3.63;;;;;;;-0.44;100.00;100327.84;4968993;28;20235;-69
2024/01/14 06:31:38;;;;;;;8.97;3.13;;;;;;;-0.33;100.00;100327.66;4964947;28;20730;-71
2024/01/14 06:34:06;;;;;;;10.60;4.17;;;;;;;-0.40;100.00;100327.22;4971759;28;20235;-71
2024/01/14 06:36:32;;;;;;;11.63;3.40;;;;;;;-0.47;100.00;100322.47;4968547;28;20281;-69
2024/01/14 06:38:59;;;;;;;12.17;4.87;;;;;;;-0.49;100.00;100316.28;4969043;28;20213;-70
2024/01/14 06:41:25;;;;;;;10.27;3.67;;;;;;;-0.49;100.00;100309.38;4970931;28;20641;-71
2024/01/14 06:43:52;;;;;;;7.80;3.70;;;;;;;-0.44;100.00;100318.34;4969682;28;20698;-71
2024/01/14 06:46:18;;;;;;;7.67;3.23;;;;;;;-0.44;100.00;100314.84;4967974;28;20273;-70
2024/01/14 06:48:45;;;;;;;7.17;3.27;;;;;;;-0.48;100.00;100305.09;4967189;28;20695;-71
2024/01/14 06:51:11;;;;;;;10.90;3.77;;;;;;;-0.42;100.00;100319.31;4970122;28;20286;-71
2024/01/14 06:53:38;;;;;;;7.60;2.80;;;;;;;-0.50;100.00;100307.59;4971458;28;20886;-71
2024/01/14 06:56:05;;;;;;;9.47;3.30;;;;;;;-0.45;100.00;100308.75;4969460;28;20223;-71
2024/01/14 06:58:31;;;;;;;10.60;4.10;;;;;;;-0.42;100.00;100319.31;4968585;28;20593;-71
2024/01/14 07:00:57;;;;;;;7.93;3.23;;;;;;;-0.41;100.00;100320.22;4966906;28;20715;-71
2024/01/14 07:03:24;;;;;;;9.57;3.60;;;;;;;-0.41;100.00;100318.50;4969028;28;20684;-70
2024/01/14 07:05:51;;;;;;;6.10;2.90;;;;;;;-0.36;100.00;100316.19;4969562;28;20206;-71
2024/01/14 07:08:18;;;;;;;10.73;4.37;;;;;;;-0.33;100.00;100319.84;4967773;28;20286;-69
2024/01/14 07:10:44;;;;;;;9.30;4.27;;;;;;;-0.29;100.00;100310.50;4970863;28;20225;-71
2024/01/14 07:13:10;;;;;;;10.13;3.90;;;;;;;-0.30;100.00;100316.53;4971024;28;20296;-71
2024/01/14 07:15:37;;;;;;;11.47;4.07;;;;;;;-0.32;100.00;100312.94;4972102;28;20576;-71
2024/01/14 07:18:05;;;;;;;10.00;3.73;;;;;;;-0.28;100.00;100306.19;4966919;28;20569;-70
2024/01/14 07:20:31;;;;;;;8.23;3.40;;;;;;;-0.25;100.00;100308.97;4970008;28;20224;-71
2024/01/14 07:22:58;;;;;;;11.67;4.40;;;;;;;-0.14;100.00;100303.53;4971029;28;20616;-70
2024/01/14 07:25:44;;;;;;;10.30;3.90;;;;;;;-0.21;100.00;100298.81;4970108;28;20208;-72
2024/01/14 07:28:11;;;;;;;15.07;4.57;;;;;;;-0.27;100.00;100288.06;4971451;28;20267;-70
2024/01/14 07:30:37;;;;;;;9.73;4.37;;;;;;;-0.21;100.00;100300.50;4969007;28;20273;-70
2024/01/14 07:33:04;;;;;;;9.07;4.37;;;;;;;-0.19;100.00;100297.19;4968250;28;20209;-71
2024/01/14 07:35:30;;;;;;;13.07;4.77;;;;;;;-0.23;100.00;100291.72;4971191;28;20716;-69
2024/01/14 07:37:57;;;;;;;9.90;4.57;;;;;;;-0.23;100.00;100290.03;4971000;28;20464;-71
2024/01/14 07:40:23;;;;;;;11.83;4.40;;;;;;;-0.32;100.00;100280.00;4968291;28;20220;-71
2024/01/14 07:42:49;;;;;;;15.30;4.57;;;;;;;-0.23;100.00;100297.81;4966950;28;20206;-71
2024/01/14 07:45:16;;;;;;;12.97;4.20;;;;;;;-0.21;100.00;100295.31;4972754;28;20665;-71
2024/01/14 07:47:42;;;;;;;9.30;4.53;;;;;;;-0.22;100.00;100293.53;4969560;28;20208;-68
2024/01/14 07:50:09;;;;;;;9.30;4.17;;;;;;;-0.29;100.00;100294.91;4968371;28;20264;-70
2024/01/14 07:52:36;;;;;;;10.03;5.20;;;;;;;-0.25;100.00;100293.34;4967446;28;20205;-70
2024/01/14 07:55:02;;;;;;;11.83;4.67;;;;;;;-0.23;100.00;100296.94;4970504;28;20231;-71
2024/01/14 07:57:29;;;;;;;10.30;3.97;;;;;;;-0.20;100.00;100298.00;4971059;28;20212;-69
2024/01/14 07:59:55;;;;;;;10.57;4.60;;;;;;;-0.18;100.00;100298.97;4968989;28;20210;-70
2024/01/14 08:02:21;;;;;;;10.47;4.53;;;;;;;-0.18;100.00;100290.25;4970274;28;20231;-72
2024/01/14 08:04:48;;;;;;;12.60;5.27;;;;;;;-0.12;100.00;100307.09;4971035;28;20280;-72
2024/01/14 08:07:14;;;;;;;12.37;5.33;;;;;;;-0.08;100.00;100289.94;4969137;28;20634;-72
2024/01/14 08:09:42;;;;;;;11.73;4.90;;;;;;;-0.10;100.00;100292.47;4967791;28;20250;-72
2024/01/14 08:12:08;;;;;;;11.10;4.53;;;;;;;-0.08;100.00;100279.53;4967831;28;20226;-71
2024/01/14 08:14:35;;;;;;;14.50;4.93;;;;;;;0.04;100.00;100282.81;4969884;28;20235;-71
2024/01/14 08:17:01;;;;;;;14.80;5.40;;;;;;;0.05;100.00;100275.91;4970530;28;20665;-72
2024/01/14 08:19:27;;;;;;;11.93;5.47;;;;;;;0.08;100.00;100276.06;4969040;28;20205;-72
2024/01/14 08:21:54;;;;;;;14.63;4.90;;;;;;;0.15;100.00;100278.16;4968156;28;20229;-71
2024/01/14 08:24:21;;;;;;;16.53;5.60;;;;;;;0.22;100.00;100275.97;4967875;28;20205;-72
2024/01/14 08:26:47;;;;;;;15.13;4.50;;;;;;;0.27;100.00;100281.41;4970652;28;20208;-71
2024/01/14 08:29:14;;;;;;;14.03;5.63;;;;;;;0.24;100.00;100271.72;4969819;28;20201;-71
2024/01/14 08:31:51;;;;;;;14.27;5.07;;;;;;;0.25;100.00;100275.22;4968249;28;20370;-71
2024/01/14 08:34:18;;;;;;;14.90;4.80;;;;;;;0.25;100.00;100270.91;4964400;28;20245;-71
2024/01/14 08:36:44;;;;;;;13.40;4.70;;;;;;;0.31;100.00;100283.34;4969283;28;20591;-72
2024/01/14 08:39:11;;;;;;;14.97;5.23;;;;;;;0.24;100.00;100279.53;4970355;28;20218;-72
2024/01/14 08:41:37;;;;;;;10.40;4.60;;;;;;;0.32;100.00;100273.00;4967511;28;20227;-70
2024/01/14 08:44:06;;;;;;;13.37;5.20;;;;;;;0.36;100.00;100268.84;4970143;28;20215;-72
2024/01/14 08:46:34;;;;;;;12.40;4.80;;;;;;;0.38;100.00;100266.31;4969800;28;20205;-71
2024/01/14 08:49:01;;;;;;;10.20;4.97;;;;;;;0.35;100.00;100269.66;4967407;28;20763;-71
2024/01/14 08:51:27;;;;;;;13.80;5.13;;;;;;;0.40;100.00;100267.28;4968505;28;20270;-70
2024/01/14 08:54:00;;;;;;;11.27;4.83;;;;;;;0.49;100.00;100279.13;4965460;28;20220;-71
2024/01/14 08:56:28;;;;;;;12.33;3.97;;;;;;;0.47;100.00;100272.03;4965560;28;20237;-71
2024/01/14 08:58:56;;;;;;;10.47;3.57;;;;;;;0.50;100.00;100274.78;4965849;28;20202;-71
2024/01/14 09:01:24;;;;;;;13.23;4.97;;;;;;;0.47;100.00;100266.81;4968704;28;20224;-71
2024/01/14 09:03:50;;;;;;;13.77;5.00;;;;;;;0.49;100.00;100273.91;4967686;28;20197;-70
2024/01/14 09:06:17;;;;;;;15.53;4.80;;;;;;;0.51;100.00;100266.16;4969357;28;20201;-72
2024/01/14 09:08:44;;;;;;;10.30;4.33;;;;;;;0.55;100.00;100265.50;4969143;28;20205;-71
2024/01/14 09:11:10;;;;;;;11.80;5.13;;;;;;;0.57;100.00;100271.69;4969166;28;20336;-71
2024/01/14 09:13:37;;;;;;;13.63;4.90;;;;;;;0.59;100.00;100262.22;4968211;28;20214;-72
2024/01/14 09:16:03;;;;;;;10.87;4.47;;;;;;;0.70;100.00;100270.59;4964174;28;20209;-73
2024/01/14 09:18:30;;;;;;;10.17;3.63;;;;;;;0.60;100.00;100271.84;4968905;28;20294;-71
2024/01/14 09:20:57;;;;;;;9.00;4.13;;;;;;;0.63;100.00;100265.06;4963932;28;20224;-72
2024/01/14 09:23:23;;;;;;;13.23;4.43;;;;;;;0.65;100.00;100272.97;4968964;28;20205;-71
2024/01/14 09:25:49;;;;;;;13.57;4.53;;;;;;;0.64;100.00;100276.38;4969580;28;20205;-71
2024/01/14 09:28:16;;;;;;;10.20;4.13;;;;;;;0.67;100.00;100280.84;4966121;28;20205;-72
2024/01/14 09:30:43;;;;;;;10.27;4.07;;;;;;;0.65;100.00;100264.25;4969322;28;20319;-71
2024/01/14 09:33:09;;;;;;;10.27;4.63;;;;;;;0.69;100.00;100269.69;4969896;28;20630;-72
2024/01/14 09:35:36;;;;;;;13.80;5.00;;;;;;;0.63;100.00;100272.88;4967128;28;20217;-70
2024/01/14 09:38:02;;;;;;;9.20;4.23;;;;;;;0.65;100.00;100278.16;4968106;28;20588;-71
2024/01/14 09:40:29;;;;;;;11.17;3.97;;;;;;;0.66;100.00;100271.25;4965890;28;20221;-70
2024/01/14 09:42:59;;;;;;;15.53;3.97;;;;;;;0.65;100.00;100272.97;4952600;28;20212;-69
2024/01/14 09:45:26;;;;;;;10.07;3.90;;;;;;;0.63;100.00;100275.50;4969301;28;20866;-70
2024/01/14 09:48:02;;;;;;;9.13;3.83;;;;;;;0.67;100.00;100270.44;4972832;28;20204;-71
2024/01/14 09:50:31;;;;;;;10.53;4.17;;;;;;;0.83;100.00;100263.47;4972423;28;20224;-70
2024/01/14 09:52:58;;;;;;;8.87;3.43;;;;;;;1.03;100.00;100256.63;4955448;28;20197;-71
2024/01/14 09:55:25;;;;;;;10.47;4.70;;;;;;;1.32;100.00;100270.19;4972854;28;20256;-69
2024/01/14 09:57:52;;;;;;;8.97;3.97;;;;;;;1.41;100.00;100266.28;4972014;28;20677;-68
2024/01/14 10:00:22;;;;;;;9.70;4.17;;;;;;;1.42;100.00;100267.19;4971209;28;20229;-69
2024/01/14 10:02:49;;;;;;;8.77;3.90;;;;;;;1.47;100.00;100258.75;4955854;28;20217;-69
2024/01/14 10:05:16;;;;;;;8.00;3.80;;;;;;;1.33;100.00;100258.94;4971076;28;20669;-69
2024/01/14 10:07:46;;;;;;;8.53;4.20;;;;;;;1.45;100.00;100256.91;4972759;28;20205;-69
2024/01/14 10:10:12;;;;;;;7.23;3.50;;;;;;;1.61;100.00;100258.53;4970249;28;20221;-69
2024/01/14 10:12:39;;;;;;;8.97;3.77;;;;;;;1.52;100.00;100248.53;4956604;28;20209;-69
2024/01/14 10:15:06;;;;;;;10.20;3.60;;;;;;;1.62;100.00;100248.16;4971609;28;20217;-69
2024/01/14 10:17:33;;;;;;;12.60;3.53;;;;;;;1.72;100.00;100242.53;4970456;28;20219;-70
2024/01/14 10:19:59;;;;;;;13.43;4.73;;;;;;;1.77;100.00;100233.19;4970262;28;20284;-70
2024/01/14 10:22:30;;;;;;;9.67;3.97;;;;;;;1.89;100.00;100219.78;4959121;28;20205;-69
2024/01/14 10:24:56;;;;;;;9.43;3.63;;;;;;;2.09;100.00;100233.75;4970746;28;20198;-70
2024/01/14 10:27:25;;;;;;;12.63;4.97;;;;;;;1.92;100.00;100222.53;4971792;28;20205;-68
2024/01/14 10:30:10;;;;;;;9.57;2.97;;;;;;;2.07;100.00;100227.56;4967380;28;20209;-68
2024/01/14 10:32:39;;;;;;;9.17;3.77;;;;;;;2.10;100.00;100220.75;4972028;28;20205;-69
2024/01/14 10:35:27;;;;;;;13.63;3.70;;;;;;;2.05;100.00;100210.94;4971170;28;20288;-70
2024/01/14 10:37:55;;;;;;;11.90;4.53;;;;;;;2.00;100.00;100205.53;4967307;28;20201;-70
2024/01/14 10:40:22;;;;;;;11.70;4.37;;;;;;;2.10;100.00;100209.41;4969593;28;20225;-69
2024/01/14 10:42:48;;;;;;;11.20;4.70;;;;;;;2.09;100.00;100199.81;4970370;28;20293;-70
2024/01/14 10:45:14;;;;;;;8.33;3.73;;;;;;;2.17;100.00;100195.81;4971610;28;20212;-70
2024/01/14 10:47:46;;;;;;;12.37;4.47;;;;;;;2.33;100.00;100198.22;4968743;28;20775;-69
2024/01/14 10:50:17;;;;;;;9.97;3.67;;;;;;;2.33;100.00;100190.41;4971383;28;20236;-68
2024/01/14 10:52:52;;;;;;;11.03;3.87;;;;;;;2.38;100.00;100180.13;4971739;28;20382;-68
2024/01/14 10:55:34;;;;;;;10.10;3.87;;;;;;;2.34;100.00;100188.66;4963043;28;20226;-70
2024/01/14 10:58:03;;;;;;;9.53;3.90;;;;;;;2.38;100.00;100180.13;4968135;28;20209;-69
2024/01/14 11:00:36;;;;;;;11.07;4.20;;;;;;;2.50;100.00;100175.44;4966116;28;20256;-70
2024/01/14 11:03:06;;;;;;;14.20;4.03;;;;;;;2.27;100.00;100186.63;4969359;28;20713;-70
2024/01/14 11:05:34;;;;;;;8.33;3.73;;;;;;;2.13;100.00;100172.97;4972413;28;20220;-69
2024/01/14 11:08:03;;;;;;;9.33;3.60;;;;;;;2.08;100.00;100164.94;4973983;28;20209;-69
2024/01/14 11:10:31;;;;;;;9.23;3.93;;;;;;;2.07;100.00;100157.06;4963543;28;20304;-69
2024/01/14 11:13:15;;;;;;;9.80;4.07;;;;;;;2.32;100.00;100161.59;4967878;28;20213;-69